Crescent Mills, CA (95934)

9:26 PM PDT on September 23, 2014 (GMT -0700)
Mt. Hough Estates | Change Station
CLOSE
Current Station
Personal Weather Station
Location: Greenville, CA
Elevation: 3550 ft
Nearby Weather Stations
Active Advisory: Fire Weather Warning

Elev 3550 ft 40.12 °N, 120.90 °W | Updated 1 minute ago

Partly Cloudy
Partly Cloudy
61.0 °F
Feels Like 61.0 °F
N
0.0
Wind Variable Wind from NW
Gusts 0.0 mph

Today
High -- | Low -- °F
--% Chance of Precip.
Yesterday
High -- | Low -- °F
Precip. -- in
6:52 AM 6:58 PM
Waning Crescent, 0% visible
Pressure 29.94 in
Visibility 10.0 miles
Clouds Mostly Cloudy 2000 ft
Dew Point 40 °F
Humidity 45%
Rainfall 0.00 in
Snow Depth 0 in , 0 in , 0 in
UV 0 out of 12
Pollen 7.00 out of 12
Air Quality Not available.
Flu Activity Not available.
METAR KBLU 240352Z AUTO 00000KT 10SM BKN020 16/05 A3016 RMK AO2 SLP138 T01610050

More Conditions Fewer Conditions

Pressure 29.94 in
Visibility 10.0 miles
Clouds Mostly Cloudy 2000 ft
Dew Point 40 °F
Humidity 45%
Rainfall 0.00 in
Snow Depth 0 in , 0 in , 0 in
UV 0 out of 12
Pollen 7.00 out of 12
Air Quality Not available.
Flu Activity Not available.
METAR KBLU 240352Z AUTO 00000KT 10SM BKN020 16/05 A3016 RMK AO2 SLP138 T01610050

More Conditions Fewer Conditions

10-Day Weather Forecast

Almanac

Astronomy

Sep. 23, 2014 Rise Set
Actual Time 6:52 AM PDT 6:58 PM PDT
Civil Twilight 6:25 AM PDT 7:25 PM PDT
Nautical Twilight 5:53 AM PDT 7:57 PM PDT
Astronomical Twilight 5:21 AM PDT 8:29 PM PDT
Moon 6:21 AM PDT (9/23) 6:40 PM PDT (9/23)
Length of Visible Light 13h 00m
Length of Day
12h 06m
Tomorrow will be 2m 37s shorter.
Waning Crescent, 0% of the Moon is Illuminated
Sep 24
Waning Crescent
Sep 24
New
Oct 1
First Quarter
Oct 8
Full
Oct 15
Last Quarter

Today's Extremes

State Highs State Lows

Community

WunderPhotos

Upload Photos

1,755,890 photos uploaded!

WunderBlogs® & News

Nearby

Snow Depth

Station Depth Elevation
Adin Mountain 0 in 6200 ft
Echo Peak 0 in 7800 ft
Summit Meadow 0 in 9122 ft
Spratt Creek 0 in 6200 ft
Rubicon #2 0 in 7500 ft

Earthquake Activity

City Distance Mag. Time & Date
Lakeview, Oregon 139 miles 2.5 2:45 AM PDT
2014-09-23
Lakeview, Oregon 140 miles 3.0 7:28 PM PDT
2014-09-21
Yountville, California 144 miles 2.6 1:17 PM PDT
2014-09-21
Minimum magnitude displayed is 2.5.

Coastal Water Temperatures

Place Temperature
No Stations Reporting

Nearby Weather Stations